Naikai2 — JD2433 — position and weather

sailwx.info

Track history (hours):
 
Tides and Currents Weather Stations Pressure Air Temp Water Temp Dewpoint Dewpoint Depression Visibility Wind Speed Wind Dir Waves Ship Positions

Naikai2

Last reported at 2016-Jul-28 10:29 UTC. Time now 2016-Jul-29 02:11 UTC.
Position N 34°18' E 134°58'.

Length 28 m; draft 2.2 m.

Type: Other ship. MMSI: 431000283.

Date/timePositionNaut miles runAvg speedWind from/ knotsBaromVisibWave heightAir tempDewpointWater temp
2016-Jul-28 10:29N 34°18' E 134°58'1415.3
2016-Jul-28 09:33N 34°31' E 135°05'18 3.4
2016-Jul-28 04:17N 34°41' E 134°47'6 7.7
2016-Jul-28 03:27N 34°37' E 134°54'8 8.5
2016-Jul-28 02:33N 34°37' E 135°03'7 7.3
2016-Jul-28 01:33N 34°39' E 135°11'1 0.1
2016-Jul-27 12:33N 34°39' E 135°10'1414.0
2016-Jul-27 11:33N 34°26' E 135°04'1110.8
2016-Jul-27 10:33N 34°16' E 134°58'1413.3
2016-Jul-27 09:32N 34°29' E 135°02'7 7.2
2016-Jul-27 08:33N 34°36' E 135°02'1 0.1
2016-Jul-27 03:33N 34°37' E 135°02'7 7.0
2016-Jul-27 02:33N 34°34' E 135°09'1010.2
2016-Jul-27 01:33N 34°25' E 135°03'1211.7
2016-Jul-27 00:33N 34°14' E 134°59'5 4.8
2016-Jul-26 23:31N 34°19' E 134°58'1313.7
2016-Jul-26 22:33N 34°30' E 135°05'11 0.6
2016-Jul-26 03:33N 34°40' E 135°11'3 0.1
2016-Jul-25 07:24N 34°38' E 135°10'1214.5
2016-Jul-25 06:33N 34°26' E 135°04'1111.3
2016-Jul-25 05:34N 34°16' E 134°58'1413.6
2016-Jul-25 04:31N 34°29' E 135°04'7 7.1
2016-Jul-25 03:29N 34°37' E 135°01'5 0.2
2016-Jul-24 01:20N 34°36' E 134°56'911.7
2016-Jul-24 00:33N 34°34' E 135°07'6 5.9
2016-Jul-23 23:33N 34°29' E 135°06'1212.1
2016-Jul-23 22:31N 34°17' E 134°59'7 7.1
2016-Jul-23 21:31N 34°10' E 135°01'4 0.2
2016-Jul-23 04:34N 34°14' E 135°04'9 8.8
2016-Jul-23 03:30N 34°22' E 135°01'1414.8
2016-Jul-23 02:33N 34°30' E 135°15'8 8.1
2016-Jul-23 01:33N 34°33' E 135°24'7 7.0
2016-Jul-23 00:33N 34°36' E 135°16'6 0.3
2016-Jul-22 02:33N 34°40' E 135°11'10 9.8
2016-Jul-22 01:33N 34°35' E 135°21'2 1.6
2016-Jul-22 00:32N 34°33' E 135°20'1110.8
2016-Jul-21 23:32N 34°27' E 135°10'1211.8
2016-Jul-21 22:29N 34°18' E 134°59'7 7.8
2016-Jul-21 21:32N 34°11' E 135°01'7 0.6
2016-Jul-21 10:33N 34°13' E 135°09'12 8.6
2016-Jul-21 09:07N 34°23' E 135°00'6 9.7
2016-Jul-21 08:33N 34°28' E 135°04'8 7.8
2016-Jul-21 07:33N 34°36' E 135°03'2 0.1
2016-Jul-20 03:30N 34°37' E 135°01'7 7.3
2016-Jul-20 02:33N 34°34' E 135°08'1312.3
2016-Jul-20 01:30N 34°22' E 135°02'1111.3
2016-Jul-20 00:32N 34°12' E 134°59'6 6.1
2016-Jul-19 23:33N 34°18' E 134°59'1414.2
2016-Jul-19 22:33N 34°31' E 135°05'9 0.6
2016-Jul-19 07:08N 34°39' E 135°10'813.1
2016-Jul-19 06:30N 34°38' E 134°60'6 1.1
2016-Jul-19 01:33N 34°35' E 135°06'7 7.4
2016-Jul-19 00:34N 34°28' E 135°05'1412.5
2016-Jul-18 23:28N 34°15' E 134°59'3 2.7
2016-Jul-18 22:17N 34°18' E 134°59'1014.0
2016-Jul-18 21:34N 34°28' E 135°03'1312.9
2016-Jul-18 20:33N 34°39' E 135°10'  
Track history (hours):
 
Tides and Currents Weather Stations Pressure Air Temp Water Temp Dewpoint Dewpoint Depression Visibility Wind Speed Wind Dir Waves Ship Positions

Naikai2

Last reported at 2016-Jul-28 10:29 UTC. Time now 2016-Jul-29 02:11 UTC.
Position N 34°18' E 134°58'.

Length 28 m; draft 2.2 m.

Type: Other ship. MMSI: 431000283.

Date/timePositionNaut miles runAvg speedWind from/ knotsBaromVisibWave heightAir tempDewpointWater temp
2016-Jul-28 10:29N 34°18' E 134°58'1415.3
2016-Jul-28 09:33N 34°31' E 135°05'18 3.4
2016-Jul-28 04:17N 34°41' E 134°47'6 7.7
2016-Jul-28 03:27N 34°37' E 134°54'8 8.5
2016-Jul-28 02:33N 34°37' E 135°03'7 7.3
2016-Jul-28 01:33N 34°39' E 135°11'1 0.1
2016-Jul-27 12:33N 34°39' E 135°10'1414.0
2016-Jul-27 11:33N 34°26' E 135°04'1110.8
2016-Jul-27 10:33N 34°16' E 134°58'1413.3
2016-Jul-27 09:32N 34°29' E 135°02'7 7.2
2016-Jul-27 08:33N 34°36' E 135°02'1 0.1
2016-Jul-27 03:33N 34°37' E 135°02'7 7.0
2016-Jul-27 02:33N 34°34' E 135°09'1010.2
2016-Jul-27 01:33N 34°25' E 135°03'1211.7
2016-Jul-27 00:33N 34°14' E 134°59'5 4.8
2016-Jul-26 23:31N 34°19' E 134°58'1313.7
2016-Jul-26 22:33N 34°30' E 135°05'11 0.6
2016-Jul-26 03:33N 34°40' E 135°11'3 0.1
2016-Jul-25 07:24N 34°38' E 135°10'1214.5
2016-Jul-25 06:33N 34°26' E 135°04'1111.3
2016-Jul-25 05:34N 34°16' E 134°58'1413.6
2016-Jul-25 04:31N 34°29' E 135°04'7 7.1
2016-Jul-25 03:29N 34°37' E 135°01'5 0.2
2016-Jul-24 01:20N 34°36' E 134°56'911.7
2016-Jul-24 00:33N 34°34' E 135°07'6 5.9
2016-Jul-23 23:33N 34°29' E 135°06'1212.1
2016-Jul-23 22:31N 34°17' E 134°59'7 7.1
2016-Jul-23 21:31N 34°10' E 135°01'4 0.2
2016-Jul-23 04:34N 34°14' E 135°04'9 8.8
2016-Jul-23 03:30N 34°22' E 135°01'1414.8
2016-Jul-23 02:33N 34°30' E 135°15'8 8.1
2016-Jul-23 01:33N 34°33' E 135°24'7 7.0
2016-Jul-23 00:33N 34°36' E 135°16'6 0.3
2016-Jul-22 02:33N 34°40' E 135°11'10 9.8
2016-Jul-22 01:33N 34°35' E 135°21'2 1.6
2016-Jul-22 00:32N 34°33' E 135°20'1110.8
2016-Jul-21 23:32N 34°27' E 135°10'1211.8
2016-Jul-21 22:29N 34°18' E 134°59'7 7.8
2016-Jul-21 21:32N 34°11' E 135°01'7 0.6
2016-Jul-21 10:33N 34°13' E 135°09'12 8.6
2016-Jul-21 09:07N 34°23' E 135°00'6 9.7
2016-Jul-21 08:33N 34°28' E 135°04'8 7.8
2016-Jul-21 07:33N 34°36' E 135°03'2 0.1
2016-Jul-20 03:30N 34°37' E 135°01'7 7.3
2016-Jul-20 02:33N 34°34' E 135°08'1312.3
2016-Jul-20 01:30N 34°22' E 135°02'1111.3
2016-Jul-20 00:32N 34°12' E 134°59'6 6.1
2016-Jul-19 23:33N 34°18' E 134°59'1414.2
2016-Jul-19 22:33N 34°31' E 135°05'9 0.6
2016-Jul-19 07:08N 34°39' E 135°10'813.1
2016-Jul-19 06:30N 34°38' E 134°60'6 1.1
2016-Jul-19 01:33N 34°35' E 135°06'7 7.4
2016-Jul-19 00:34N 34°28' E 135°05'1412.5
2016-Jul-18 23:28N 34°15' E 134°59'3 2.7
2016-Jul-18 22:17N 34°18' E 134°59'1014.0
2016-Jul-18 21:34N 34°28' E 135°03'1312.9
2016-Jul-18 20:33N 34°39' E 135°10'  

Dump ship's entire track history